createdAt,value
2022-08-25T00:00:06.326Z,6.60
2022-08-25T00:02:27.828Z,7.00
2022-08-25T00:04:53.605Z,7.25
2022-08-25T00:07:18.538Z,5.80
2022-08-25T00:09:40.405Z,7.88
2022-08-25T00:12:04.246Z,6.85
2022-08-25T00:14:33.515Z,6.63
2022-08-25T00:16:56.239Z,7.50
2022-08-25T00:19:22.628Z,7.80
2022-08-25T00:21:45.358Z,5.32
2022-08-25T00:24:08.942Z,5.35
2022-08-25T00:26:31.049Z,4.30
2022-08-25T00:28:54.194Z,6.57
2022-08-25T00:31:37.506Z,6.38
2022-08-25T00:34:01.188Z,5.03
2022-08-25T00:36:22.675Z,4.63
2022-08-25T00:38:46.038Z,6.07
2022-08-25T00:41:08.495Z,5.82
2022-08-25T00:43:45.642Z,5.03
2022-08-25T00:46:10.961Z,4.72
2022-08-25T00:48:32.546Z,5.45
2022-08-25T00:50:54.029Z,5.38
2022-08-25T00:53:15.931Z,5.75
2022-08-25T00:55:40.238Z,7.03
2022-08-25T00:58:20.176Z,4.32
2022-08-25T01:00:45.677Z,7.35
2022-08-25T01:03:07.472Z,8.90
2022-08-25T01:05:30.630Z,4.60
2022-08-25T01:07:52.806Z,6.22
2022-08-25T01:10:22.155Z,5.68
2022-08-25T01:12:43.992Z,7.70
2022-08-25T01:15:08.164Z,5.40
2022-08-25T01:17:54.400Z,5.50
2022-08-25T01:20:19.400Z,4.97
2022-08-25T01:22:41.219Z,5.80
2022-08-25T01:25:07.715Z,10.15
2022-08-25T01:27:29.464Z,5.32
2022-08-25T01:29:51.112Z,6.25
2022-08-25T01:32:14.962Z,5.10
2022-08-25T01:34:38.934Z,7.20
2022-08-25T01:37:01.290Z,4.90
2022-08-25T01:39:22.968Z,10.55
2022-08-25T01:42:23.235Z,5.35
2022-08-25T01:44:46.429Z,5.40
2022-08-25T01:47:08.616Z,8.90
2022-08-25T01:49:30.321Z,4.93
2022-08-25T01:51:56.811Z,5.00
2022-08-25T01:54:18.790Z,5.65
2022-08-25T01:56:41.370Z,5.32
2022-08-25T01:59:02.933Z,10.68
2022-08-25T02:01:24.796Z,6.57
2022-08-25T02:03:49.701Z,8.43
2022-08-25T02:06:13.810Z,5.70
2022-08-25T02:08:35.349Z,8.48
2022-08-25T02:10:56.837Z,5.85
2022-08-25T02:13:20.106Z,7.17
2022-08-25T02:15:52.414Z,6.37
2022-08-25T02:18:14.576Z,7.32
2022-08-25T02:20:36.996Z,6.70
2022-08-25T02:22:58.447Z,8.40
2022-08-25T02:25:20.251Z,8.15
2022-08-25T02:27:41.727Z,5.80
2022-08-25T02:30:05.561Z,7.07
2022-08-25T02:32:27.809Z,9.80
2022-08-25T02:34:49.420Z,8.00
2022-08-25T02:37:10.892Z,7.57
2022-08-25T02:39:32.367Z,5.50
2022-08-25T02:41:54.270Z,5.70
2022-08-25T02:44:16.045Z,11.53
2022-08-25T02:46:37.946Z,6.55
2022-08-25T02:48:59.878Z,6.53
2022-08-25T02:51:23.455Z,9.70
2022-08-25T02:53:47.019Z,5.70
2022-08-25T02:56:10.234Z,6.10
2022-08-25T02:58:31.688Z,6.83
2022-08-25T03:00:53.242Z,6.43
2022-08-25T03:03:15.458Z,7.17
2022-08-25T03:05:37.065Z,12.70
2022-08-25T03:07:58.707Z,7.10
2022-08-25T03:10:20.777Z,8.63
2022-08-25T03:12:42.738Z,8.50
2022-08-25T03:15:04.852Z,7.23
2022-08-25T03:17:30.652Z,8.83
2022-08-25T03:19:57.346Z,6.70
2022-08-25T03:22:18.792Z,7.97
2022-08-25T03:24:40.292Z,6.80
2022-08-25T03:27:01.783Z,8.43
2022-08-25T03:29:27.718Z,7.40
2022-08-25T03:31:50.211Z,9.60
2022-08-25T03:34:17.035Z,6.83
2022-08-25T03:36:38.533Z,7.50
2022-08-25T03:39:00.549Z,7.83
2022-08-25T03:41:25.650Z,6.87
2022-08-25T03:43:50.300Z,6.60
2022-08-25T03:46:25.345Z,7.63
2022-08-25T03:48:46.879Z,8.27
2022-08-25T03:51:08.320Z,6.57
2022-08-25T03:53:29.881Z,7.03
2022-08-25T03:55:51.592Z,7.20
2022-08-25T03:58:13.489Z,7.87
2022-08-25T04:00:35.380Z,9.13
2022-08-25T04:02:56.944Z,8.13
2022-08-25T04:05:18.508Z,6.87
2022-08-25T04:07:41.993Z,8.83
2022-08-25T04:10:06.026Z,8.40
2022-08-25T04:12:27.694Z,10.00
2022-08-25T04:14:49.334Z,8.37
2022-08-25T04:17:10.766Z,11.00
2022-08-25T04:19:32.245Z,8.27
2022-08-25T04:21:56.625Z,10.00
2022-08-25T04:24:19.271Z,8.33
2022-08-25T04:26:51.642Z,9.67
2022-08-25T04:29:15.162Z,9.97
2022-08-25T04:31:40.213Z,7.83
2022-08-25T04:34:03.838Z,7.40
2022-08-25T04:36:32.747Z,10.27
2022-08-25T04:38:54.244Z,8.20
2022-08-25T04:41:19.573Z,9.20
2022-08-25T04:43:42.471Z,7.40
2022-08-25T04:46:11.164Z,11.70
2022-08-25T04:48:32.839Z,9.17
2022-08-25T04:50:54.339Z,10.43
2022-08-25T04:53:16.627Z,7.77
2022-08-25T04:55:48.046Z,8.87
2022-08-25T04:58:14.620Z,9.80
2022-08-25T05:00:38.295Z,9.70
2022-08-25T05:03:00.039Z,8.83
2022-08-25T05:05:23.057Z,7.87
2022-08-25T05:07:44.539Z,8.40
2022-08-25T05:10:06.440Z,8.10
2022-08-25T05:12:28.304Z,8.90
2022-08-25T05:14:53.888Z,8.57
2022-08-25T05:17:15.411Z,7.90
2022-08-25T05:19:36.856Z,10.03
2022-08-25T05:21:58.443Z,8.13
2022-08-25T05:24:20.957Z,10.70
2022-08-25T05:26:42.510Z,8.43
2022-08-25T05:29:05.330Z,8.33
2022-08-25T05:31:27.856Z,8.70
2022-08-25T05:33:50.287Z,10.20
2022-08-25T05:36:13.171Z,8.10
2022-08-25T05:38:34.647Z,12.53
2022-08-25T05:41:01.653Z,12.07
2022-08-25T05:43:23.105Z,13.18
2022-08-25T05:45:44.843Z,12.98
2022-08-25T05:48:06.914Z,12.10
2022-08-25T05:50:28.527Z,10.43
2022-08-25T05:52:50.085Z,12.65
2022-08-25T05:55:11.694Z,12.25
2022-08-25T05:57:33.967Z,14.65
2022-08-25T05:59:55.473Z,9.05
2022-08-25T06:02:35.364Z,10.18
2022-08-25T06:04:58.746Z,12.13
2022-08-25T06:07:21.063Z,12.55
2022-08-25T06:09:42.506Z,11.80
2022-08-25T06:12:04.027Z,16.95
2022-08-25T06:14:25.756Z,12.15
2022-08-25T06:16:48.819Z,13.40
2022-08-25T06:19:10.777Z,12.43
2022-08-25T06:21:32.712Z,16.42
2022-08-25T06:23:54.173Z,11.07
2022-08-25T06:26:21.195Z,10.70
2022-08-25T06:28:43.143Z,10.95
2022-08-25T06:31:05.427Z,11.07
2022-08-25T06:33:27.688Z,14.27
2022-08-25T06:35:49.316Z,11.40
2022-08-25T06:38:11.288Z,12.40
2022-08-25T06:40:32.786Z,10.98
2022-08-25T06:42:54.378Z,12.57
2022-08-25T06:45:16.196Z,11.43
2022-08-25T06:47:37.718Z,11.40
2022-08-25T06:49:59.166Z,11.98
2022-08-25T06:52:20.618Z,11.50
2022-08-25T06:54:42.229Z,12.68
2022-08-25T06:57:06.037Z,11.27
2022-08-25T06:59:32.182Z,16.80
2022-08-25T07:01:54.164Z,11.93
2022-08-25T07:04:15.791Z,11.25
2022-08-25T07:06:37.730Z,12.88
2022-08-25T07:08:59.682Z,12.27
2022-08-25T07:11:21.549Z,13.98
2022-08-25T07:13:43.452Z,14.93
2022-08-25T07:16:05.968Z,15.05
2022-08-25T07:18:27.497Z,11.23
2022-08-25T07:20:49.192Z,11.98
2022-08-25T07:23:10.695Z,11.68
2022-08-25T07:25:32.521Z,14.50
2022-08-25T07:27:58.577Z,11.73
2022-08-25T07:30:21.069Z,13.18
2022-08-25T07:32:43.287Z,11.65
2022-08-25T07:35:19.017Z,12.65
2022-08-25T07:37:49.191Z,13.23
2022-08-25T07:40:18.460Z,11.63
2022-08-25T07:42:40.091Z,14.05
2022-08-25T07:45:02.314Z,15.77
2022-08-25T07:47:23.821Z,12.63
2022-08-25T07:49:45.332Z,13.43
2022-08-25T07:52:07.046Z,14.20
2022-08-25T07:54:34.084Z,17.63
2022-08-25T07:56:56.176Z,14.60
2022-08-25T07:59:17.617Z,17.05
2022-08-25T08:01:40.224Z,14.63
2022-08-25T08:04:03.655Z,14.35
2022-08-25T08:06:25.685Z,15.00
2022-08-25T08:08:49.415Z,14.93
2022-08-25T08:11:34.460Z,15.23
2022-08-25T08:13:58.247Z,15.38
2022-08-25T08:16:21.528Z,13.30
2022-08-25T08:18:44.557Z,13.40
2022-08-25T08:21:12.816Z,15.13
2022-08-25T08:23:40.767Z,14.43
2022-08-25T08:26:02.873Z,13.40
2022-08-25T08:28:27.856Z,13.18
2022-08-25T08:30:53.164Z,10.90
2022-08-25T08:33:15.411Z,13.25
2022-08-25T08:35:37.194Z,12.45
2022-08-25T08:37:58.640Z,10.45
2022-08-25T08:40:20.999Z,10.73
2022-08-25T08:43:18.938Z,12.13
2022-08-25T08:45:51.915Z,15.45
2022-08-25T08:48:33.021Z,11.82
2022-08-25T08:51:10.418Z,13.75
2022-08-25T08:53:46.158Z,10.63
2022-08-25T08:56:15.864Z,9.60
2022-08-25T08:58:38.138Z,11.13
2022-08-25T09:01:01.859Z,11.70
2022-08-25T09:03:36.282Z,9.25
2022-08-25T09:06:07.405Z,14.43
2022-08-25T09:08:28.934Z,9.20
2022-08-25T09:10:54.197Z,10.23
2022-08-25T09:13:54.518Z,13.23
2022-08-25T09:16:43.651Z,10.18
2022-08-25T09:19:32.318Z,9.70
2022-08-25T09:22:35.520Z,9.77
2022-08-25T09:25:10.813Z,8.38
2022-08-25T09:27:44.055Z,9.15
2022-08-25T09:30:10.091Z,11.07
2022-08-25T09:32:35.255Z,10.95
2022-08-25T09:34:57.700Z,9.13
2022-08-25T09:37:19.761Z,12.95
2022-08-25T09:39:42.208Z,8.60
2022-08-25T09:42:04.369Z,9.88
2022-08-25T09:44:27.650Z,9.55
2022-08-25T09:47:05.419Z,11.48
2022-08-25T09:49:37.654Z,8.07
2022-08-25T09:52:21.371Z,10.40
2022-08-25T09:54:44.201Z,8.50
2022-08-25T09:57:09.281Z,13.18
2022-08-25T09:59:36.016Z,8.02
2022-08-25T10:02:00.267Z,8.60
2022-08-25T10:04:33.152Z,8.60
2022-08-25T10:06:55.764Z,9.63
2022-08-25T10:09:30.804Z,8.52
2022-08-25T10:11:57.666Z,8.05
2022-08-25T10:14:32.758Z,11.63
2022-08-25T10:17:17.231Z,8.43
2022-08-25T10:19:38.831Z,9.30
2022-08-25T10:22:24.859Z,7.80
2022-08-25T10:24:46.424Z,8.13
2022-08-25T10:27:17.764Z,10.02
2022-08-25T10:29:48.220Z,8.15
2022-08-25T10:32:28.202Z,8.05
2022-08-25T10:34:54.597Z,9.80
2022-08-25T10:37:38.387Z,9.77
2022-08-25T10:40:16.559Z,8.55
2022-08-25T10:42:58.121Z,9.60
2022-08-25T10:45:44.497Z,7.82
2022-08-25T10:48:20.396Z,9.55
2022-08-25T10:50:53.420Z,8.23
2022-08-25T10:53:23.910Z,9.75
2022-08-25T10:55:48.096Z,8.43
2022-08-25T10:58:23.172Z,8.93
2022-08-25T11:00:59.402Z,9.43
2022-08-25T11:03:35.323Z,7.90
2022-08-25T11:06:02.919Z,8.45
2022-08-25T11:08:44.486Z,6.35
2022-08-25T11:11:12.951Z,10.63
2022-08-25T11:13:44.037Z,7.82
2022-08-25T11:16:17.463Z,12.05
2022-08-25T11:18:48.982Z,10.70
2022-08-25T11:21:17.952Z,8.60
2022-08-25T11:24:05.763Z,7.20
2022-08-25T11:26:36.924Z,8.20
2022-08-25T11:29:12.769Z,6.70
2022-08-25T11:31:42.004Z,8.90
2022-08-25T11:34:03.539Z,6.28
2022-08-25T11:36:30.789Z,9.48
2022-08-25T11:39:09.842Z,10.95
2022-08-25T11:41:58.975Z,10.00
2022-08-25T11:44:53.251Z,7.15
2022-08-25T11:47:27.077Z,9.10
2022-08-25T11:50:02.093Z,10.40
2022-08-25T11:52:32.643Z,7.78
2022-08-25T11:54:54.144Z,10.32
2022-08-25T11:57:23.409Z,9.05
2022-08-25T11:59:51.502Z,5.97
2022-08-25T12:02:32.358Z,9.68
2022-08-25T12:04:55.427Z,6.38
2022-08-25T12:07:20.937Z,7.93
2022-08-25T12:10:03.465Z,10.40
2022-08-25T12:12:39.761Z,10.27
2022-08-25T12:15:42.732Z,8.65
2022-08-25T12:18:13.607Z,9.27
2022-08-25T12:20:57.902Z,7.22
2022-08-25T12:23:51.567Z,7.28
2022-08-25T12:26:26.536Z,5.63
2022-08-25T12:29:23.683Z,10.80
2022-08-25T12:32:05.020Z,6.63
2022-08-25T12:34:49.725Z,7.93
2022-08-25T12:37:15.380Z,7.82
2022-08-25T12:39:44.970Z,8.88
2022-08-25T12:42:19.924Z,7.72
2022-08-25T12:44:47.886Z,6.22
2022-08-25T12:47:19.755Z,9.57
2022-08-25T12:49:45.879Z,8.43
2022-08-25T12:52:18.234Z,7.93
2022-08-25T12:54:47.711Z,6.72
2022-08-25T12:57:34.422Z,6.72
2022-08-25T12:59:58.702Z,11.77
2022-08-25T13:02:54.288Z,7.03
2022-08-25T13:05:53.583Z,6.90
2022-08-25T13:08:46.913Z,9.98
2022-08-25T13:11:17.376Z,7.45
2022-08-25T13:14:00.416Z,10.27
2022-08-25T13:16:29.817Z,7.47
2022-08-25T13:18:51.843Z,5.95
2022-08-25T13:21:24.856Z,9.15
2022-08-25T13:23:49.734Z,8.73
2022-08-25T13:26:21.140Z,9.35
2022-08-25T13:28:50.596Z,7.63
2022-08-25T13:31:18.632Z,7.10
2022-08-25T13:33:57.602Z,10.20
2022-08-25T13:36:37.990Z,6.20
2022-08-25T13:39:12.543Z,7.70
2022-08-25T13:41:34.123Z,8.38
2022-08-25T13:43:56.840Z,9.43
2022-08-25T13:46:23.059Z,9.23
2022-08-25T13:48:49.337Z,7.78
2022-08-25T13:51:31.258Z,7.88
2022-08-25T13:54:00.220Z,6.68
2022-08-25T13:56:41.204Z,11.73
2022-08-25T13:59:06.304Z,6.50
2022-08-25T14:01:47.770Z,9.07
2022-08-25T14:04:30.881Z,7.57
2022-08-25T14:07:33.658Z,8.25
2022-08-25T14:09:55.925Z,9.15
2022-08-25T14:14:59.132Z,6.78
2022-08-25T14:17:38.154Z,10.88
2022-08-25T14:20:02.111Z,6.95
2022-08-25T14:22:23.867Z,6.07
2022-08-25T14:24:46.491Z,7.63
2022-08-25T14:27:07.945Z,9.57
2022-08-25T14:29:35.538Z,7.30
2022-08-25T14:32:03.209Z,7.70
2022-08-25T14:34:29.465Z,6.10
2022-08-25T14:36:51.888Z,8.95
2022-08-25T14:39:14.465Z,9.93
2022-08-25T14:41:40.805Z,5.95
2022-08-25T14:44:05.168Z,7.50
2022-08-25T14:46:29.374Z,11.38
2022-08-25T14:48:55.518Z,12.57
2022-08-25T14:51:17.054Z,10.20
2022-08-25T14:53:38.787Z,5.35
2022-08-25T14:56:01.368Z,5.68
2022-08-25T14:58:33.897Z,7.65
2022-08-25T15:00:57.499Z,7.72
2022-08-25T15:03:29.635Z,7.97
2022-08-25T15:05:53.169Z,5.40
2022-08-25T15:08:40.965Z,6.38
2022-08-25T15:11:09.038Z,9.20
2022-08-25T15:13:31.170Z,9.75
2022-08-25T15:15:53.376Z,15.55
2022-08-25T15:18:17.121Z,7.18
2022-08-25T15:20:38.600Z,7.20
2022-08-25T15:23:00.096Z,5.35
2022-08-25T15:25:22.860Z,5.93
2022-08-25T15:27:46.878Z,5.75
2022-08-25T15:30:09.134Z,5.22
2022-08-25T15:32:34.536Z,5.70
2022-08-25T15:34:56.823Z,7.70
2022-08-25T15:37:18.302Z,8.80
2022-08-25T15:39:43.114Z,6.50
2022-08-25T15:42:06.463Z,10.40
2022-08-25T15:44:29.648Z,5.78
2022-08-25T15:46:51.714Z,8.23
2022-08-25T15:49:13.272Z,6.50
2022-08-25T15:51:35.150Z,9.50
2022-08-25T15:53:57.656Z,5.95
2022-08-25T15:56:26.490Z,5.85
2022-08-25T15:58:49.932Z,6.68
2022-08-25T16:01:16.644Z,8.25
2022-08-25T16:03:40.961Z,6.60
2022-08-25T16:06:04.164Z,8.25
2022-08-25T16:08:25.721Z,7.18
2022-08-25T16:10:47.516Z,6.80
2022-08-25T16:13:09.874Z,6.10
2022-08-25T16:15:32.916Z,8.48
2022-08-25T16:17:54.630Z,6.57
2022-08-25T16:20:17.200Z,7.38
2022-08-25T16:22:39.403Z,7.10
2022-08-25T16:25:01.993Z,6.63
2022-08-25T16:27:24.242Z,8.77
2022-08-25T16:29:45.809Z,7.65
2022-08-25T16:32:08.014Z,6.93
2022-08-25T16:34:30.891Z,7.43
2022-08-25T16:36:54.717Z,11.55
2022-08-25T16:39:16.190Z,6.72
2022-08-25T16:41:37.640Z,9.55
2022-08-25T16:44:07.658Z,5.90
2022-08-25T16:46:32.878Z,8.00
2022-08-25T16:48:54.704Z,7.55
2022-08-25T16:51:19.438Z,8.02
2022-08-25T16:54:03.370Z,6.55
2022-08-25T16:56:25.156Z,5.50
2022-08-25T16:58:48.835Z,5.60
2022-08-25T17:01:13.818Z,6.30
2022-08-25T17:03:36.240Z,7.15
2022-08-25T17:05:59.174Z,10.20
2022-08-25T17:08:30.758Z,5.65
2022-08-25T17:10:52.436Z,7.32
2022-08-25T17:13:14.368Z,6.35
2022-08-25T17:15:40.692Z,7.60
2022-08-25T17:18:02.291Z,8.93
2022-08-25T17:20:26.071Z,6.85
2022-08-25T17:22:49.708Z,7.05
2022-08-25T17:25:11.188Z,11.48
2022-08-25T17:27:32.653Z,7.50
2022-08-25T17:29:54.628Z,8.15
2022-08-25T17:32:17.342Z,6.40
2022-08-25T17:34:39.131Z,7.72
2022-08-25T17:37:00.605Z,12.07
2022-08-25T17:39:22.748Z,6.47
2022-08-25T17:41:45.150Z,9.63
2022-08-25T17:44:06.595Z,6.78
2022-08-25T17:46:28.446Z,9.73
2022-08-25T17:48:50.370Z,6.28
2022-08-25T17:51:11.907Z,8.27
2022-08-25T17:53:34.980Z,7.28
2022-08-25T17:56:00.266Z,7.70
2022-08-25T17:58:22.561Z,8.10
2022-08-25T18:00:45.751Z,9.30
2022-08-25T18:03:08.219Z,8.75
2022-08-25T18:05:33.049Z,8.00
2022-08-25T18:07:54.614Z,8.80
2022-08-25T18:10:17.413Z,9.10
2022-08-25T18:12:39.234Z,9.57
2022-08-25T18:15:01.082Z,11.88
2022-08-25T18:17:22.989Z,8.98
2022-08-25T18:19:46.172Z,7.10
2022-08-25T18:22:08.284Z,7.25
2022-08-25T18:24:29.945Z,7.72
2022-08-25T18:26:51.874Z,13.30
2022-08-25T18:29:14.098Z,8.00
2022-08-25T18:31:38.179Z,11.57
2022-08-25T18:33:59.684Z,7.07
2022-08-25T18:36:21.333Z,7.28
2022-08-25T18:39:02.827Z,9.50
2022-08-25T18:41:24.586Z,10.10
2022-08-25T18:43:46.170Z,11.50
2022-08-25T18:46:08.284Z,10.43
2022-08-25T18:48:34.773Z,6.80
2022-08-25T18:50:56.805Z,11.20
2022-08-25T18:53:30.510Z,11.60
2022-08-25T18:55:59.273Z,13.45
2022-08-25T18:58:22.734Z,8.45
2022-08-25T19:00:45.882Z,11.10
2022-08-25T19:03:10.056Z,11.00
2022-08-25T19:05:34.708Z,11.40
2022-08-25T19:07:56.233Z,12.25
2022-08-25T19:10:19.603Z,9.52
2022-08-25T19:12:41.192Z,9.40
2022-08-25T19:15:03.371Z,9.23
2022-08-25T19:17:26.505Z,10.15
2022-08-25T19:19:49.423Z,7.82
2022-08-25T19:22:31.644Z,8.52
2022-08-25T19:24:52.627Z,9.05
2022-08-25T19:27:14.600Z,10.68
2022-08-25T19:29:36.191Z,7.88
2022-08-25T19:32:01.315Z,8.48
2022-08-25T19:34:28.150Z,10.80
2022-08-25T19:36:51.820Z,11.40
2022-08-25T19:39:15.246Z,8.88
2022-08-25T19:41:38.300Z,16.90
2022-08-25T19:44:02.794Z,12.65
2022-08-25T19:46:33.006Z,17.50
2022-08-25T19:48:56.936Z,16.63
2022-08-25T19:51:19.131Z,11.52
2022-08-25T19:53:41.271Z,13.40
2022-08-25T19:56:03.758Z,11.73
2022-08-25T19:58:25.615Z,8.02
2022-08-25T20:00:51.127Z,12.77
2022-08-25T20:03:12.812Z,13.00
2022-08-25T20:05:35.889Z,12.65
2022-08-25T20:07:57.739Z,9.93
2022-08-25T20:10:21.214Z,8.90
2022-08-25T20:12:44.657Z,9.45
2022-08-25T20:15:09.338Z,14.45
2022-08-25T20:17:31.224Z,10.57
2022-08-25T20:19:55.757Z,8.80
2022-08-25T20:22:18.283Z,9.00
2022-08-25T20:24:51.094Z,9.45
2022-08-25T20:27:20.717Z,10.68
2022-08-25T20:29:44.667Z,9.50
2022-08-25T20:32:06.492Z,8.48
2022-08-25T20:34:29.044Z,9.75
2022-08-25T20:36:50.536Z,11.90
2022-08-25T20:39:12.068Z,12.82
2022-08-25T20:41:33.832Z,11.20
2022-08-25T20:43:57.226Z,12.55
2022-08-25T20:46:19.228Z,10.52
2022-08-25T20:48:40.825Z,11.65
2022-08-25T20:51:09.453Z,11.23
2022-08-25T20:53:34.937Z,10.50
2022-08-25T20:55:57.572Z,9.82
2022-08-25T20:58:19.029Z,12.38
2022-08-25T21:00:44.731Z,16.13
2022-08-25T21:03:06.188Z,12.00
2022-08-25T21:05:28.413Z,12.35
2022-08-25T21:07:49.914Z,12.05
2022-08-25T21:10:14.377Z,10.60
2022-08-25T21:12:36.582Z,10.20
2022-08-25T21:14:58.232Z,8.95
2022-08-25T21:17:19.735Z,9.07
2022-08-25T21:19:42.345Z,9.30
2022-08-25T21:22:04.083Z,12.00
2022-08-25T21:24:26.003Z,9.52
2022-08-25T21:26:49.839Z,8.95
2022-08-25T21:29:11.325Z,10.07
2022-08-25T21:31:36.807Z,10.70
2022-08-25T21:33:59.581Z,12.70
2022-08-25T21:36:24.469Z,13.98
2022-08-25T21:38:47.118Z,8.85
2022-08-25T21:41:11.135Z,11.95
2022-08-25T21:43:32.597Z,10.15
2022-08-25T21:45:54.215Z,11.52
2022-08-25T21:48:17.944Z,10.65
2022-08-25T21:50:39.533Z,12.13
2022-08-25T21:53:01.100Z,11.80
2022-08-25T21:55:23.468Z,10.13
2022-08-25T21:57:44.900Z,9.38
2022-08-25T22:00:07.983Z,9.40
2022-08-25T22:02:30.542Z,10.63
2022-08-25T22:04:53.662Z,12.77
2022-08-25T22:07:15.099Z,10.45
2022-08-25T22:09:37.057Z,11.82
2022-08-25T22:11:58.631Z,9.00
2022-08-25T22:14:20.678Z,8.57
2022-08-25T22:16:42.674Z,11.90
2022-08-25T22:19:06.266Z,9.18
2022-08-25T22:23:50.845Z,12.55
2022-08-25T22:26:15.495Z,10.27
2022-08-25T22:28:37.016Z,11.90
2022-08-25T22:31:06.728Z,9.05
2022-08-25T22:33:30.486Z,12.50
2022-08-25T22:35:59.793Z,10.35
2022-08-25T22:38:21.769Z,9.38
2022-08-25T22:40:45.321Z,8.07
2022-08-25T22:43:10.849Z,12.27
2022-08-25T22:45:33.439Z,11.43
2022-08-25T22:47:55.419Z,11.27
2022-08-25T22:50:17.417Z,12.07
2022-08-25T22:52:42.431Z,12.90
2022-08-25T22:55:05.507Z,10.38
2022-08-25T22:57:34.512Z,13.68
2022-08-25T22:59:56.674Z,10.93
2022-08-25T23:02:18.283Z,11.27
2022-08-25T23:04:43.277Z,11.07
2022-08-25T23:07:05.286Z,10.55
2022-08-25T23:09:28.066Z,12.40
2022-08-25T23:11:51.364Z,8.98
2022-08-25T23:14:13.041Z,14.23
2022-08-25T23:16:34.563Z,9.82
2022-08-25T23:18:56.543Z,13.57
2022-08-25T23:21:41.048Z,11.63
2022-08-25T23:24:03.988Z,13.52
2022-08-25T23:26:26.260Z,13.98
2022-08-25T23:28:48.575Z,14.32
2022-08-25T23:31:12.306Z,11.00
2022-08-25T23:33:34.211Z,14.20
2022-08-25T23:36:00.731Z,10.48
2022-08-25T23:38:23.188Z,14.00
2022-08-25T23:40:44.687Z,10.57
2022-08-25T23:43:06.548Z,12.35
2022-08-25T23:45:28.345Z,12.73
2022-08-25T23:47:51.759Z,14.93
2022-08-25T23:50:14.064Z,9.73
2022-08-25T23:52:36.012Z,15.27
2022-08-25T23:54:58.068Z,15.00
2022-08-25T23:57:19.632Z,12.20
2022-08-25T23:59:41.330Z,11.82
